Terminal Aerodrome Forecast
Issued by NWS

Home | Current Version | Previous Version | Text Only | Print | Product List | Glossary On
Versions: 1 2 3 4 5 6 7 8 9 10 11 12 13 14 15 16 17
000
FTUS43 KMPX 301700
TAFRNH
TAF
KRNH 301720Z 3018/3118 01006KT P6SM BKN015 BKN035
     FM301900 01006KT P6SM BKN025 BKN040
     FM302200 VRB03KT P6SM SCT020 BKN035
     FM310300 00000KT P6SM FEW250
     FM310900 13003KT 1/4SM FG VV002
     FM311400 15008KT 6SM BR FEW012=

USA.gov is the U.S. government's official web portal to all federal, state and local government web resources and services.